createdAt,value
2023-02-21T00:02:21.712Z,53.22
2023-02-21T00:05:07.752Z,52.87
2023-02-21T00:07:53.933Z,52.98
2023-02-21T00:10:39.962Z,53.07
2023-02-21T00:13:26.160Z,52.70
2023-02-21T00:16:12.219Z,52.32
2023-02-21T00:18:59.800Z,52.72
2023-02-21T00:21:47.341Z,52.93
2023-02-21T00:24:33.412Z,52.49
2023-02-21T00:27:18.996Z,52.47
2023-02-21T00:30:06.414Z,51.90
2023-02-21T00:32:52.732Z,51.73
2023-02-21T00:35:40.070Z,51.74
2023-02-21T00:38:26.773Z,51.49
2023-02-21T00:41:13.575Z,51.88
2023-02-21T00:43:59.673Z,51.47
2023-02-21T00:46:45.723Z,51.72
2023-02-21T00:49:31.734Z,51.39
2023-02-21T00:52:18.800Z,51.70
2023-02-21T00:55:04.799Z,51.96
2023-02-21T00:57:50.937Z,52.19
2023-02-21T01:00:38.898Z,52.41
2023-02-21T01:03:25.239Z,52.07
2023-02-21T01:06:12.086Z,51.61
2023-02-21T01:09:01.576Z,51.41
2023-02-21T01:11:47.533Z,51.73
2023-02-21T01:14:33.305Z,52.21
2023-02-21T01:17:19.296Z,52.15
2023-02-21T01:20:05.487Z,53.23
2023-02-21T01:22:53.122Z,52.55
2023-02-21T01:25:41.254Z,52.34
2023-02-21T01:28:27.188Z,51.98
2023-02-21T01:31:13.729Z,52.38
2023-02-21T01:34:00.774Z,53.60
2023-02-21T01:36:46.821Z,52.62
2023-02-21T01:39:33.474Z,52.16
2023-02-21T01:42:21.008Z,52.53
2023-02-21T01:45:07.596Z,54.07
2023-02-21T01:47:53.696Z,52.91
2023-02-21T01:50:43.750Z,51.78
2023-02-21T01:53:33.883Z,52.26
2023-02-21T01:56:21.099Z,52.26
2023-02-21T01:59:11.196Z,53.19
2023-02-21T02:02:04.258Z,53.01
2023-02-21T02:04:52.249Z,52.51
2023-02-21T02:07:38.878Z,53.41
2023-02-21T02:10:27.472Z,52.64
2023-02-21T02:13:15.535Z,52.94
2023-02-21T02:15:57.446Z,53.37
2023-02-21T02:18:51.460Z,53.62
2023-02-21T02:21:58.397Z,53.93
2023-02-21T02:24:47.889Z,53.73
2023-02-21T02:27:45.149Z,53.52
2023-02-21T02:31:04.860Z,52.30
2023-02-21T02:34:08.513Z,53.03
2023-02-21T02:36:43.204Z,53.40
2023-02-21T02:39:23.966Z,53.40
2023-02-21T02:42:02.557Z,53.45
2023-02-21T02:44:39.107Z,52.75
2023-02-21T02:47:12.316Z,53.23
2023-02-21T02:49:44.449Z,53.96
2023-02-21T02:52:14.483Z,54.26
2023-02-21T02:54:43.108Z,54.34
2023-02-21T02:57:13.498Z,54.18
2023-02-21T02:59:46.956Z,54.41
2023-02-21T03:02:48.397Z,54.14
2023-02-21T03:05:43.562Z,54.27
2023-02-21T03:08:25.940Z,55.07
2023-02-21T03:11:03.797Z,54.26
2023-02-21T03:13:44.647Z,54.70
2023-02-21T03:16:19.301Z,54.90
2023-02-21T03:18:50.932Z,54.92
2023-02-21T03:21:24.389Z,54.22
2023-02-21T03:23:58.849Z,54.14
2023-02-21T03:26:31.071Z,54.04
2023-02-21T03:29:09.871Z,54.34
2023-02-21T03:31:45.609Z,53.74
2023-02-21T03:34:14.817Z,53.61
2023-02-21T03:36:43.768Z,53.71
2023-02-21T03:39:15.378Z,53.92
2023-02-21T03:41:44.129Z,54.79
2023-02-21T03:44:12.664Z,54.92
2023-02-21T03:46:41.380Z,53.75
2023-02-21T03:49:10.107Z,53.91
2023-02-21T03:51:38.710Z,52.88
2023-02-21T03:54:07.274Z,53.66
2023-02-21T03:56:43.756Z,53.87
2023-02-21T03:59:24.715Z,53.58
2023-02-21T04:01:54.443Z,53.82
2023-02-21T04:04:23.856Z,53.53
2023-02-21T04:07:00.205Z,53.70
2023-02-21T04:09:29.158Z,53.31
2023-02-21T04:11:59.148Z,53.35
2023-02-21T04:14:28.657Z,53.87
2023-02-21T04:16:57.108Z,52.76
2023-02-21T04:19:25.902Z,52.41
2023-02-21T04:21:55.470Z,52.38
2023-02-21T04:24:24.279Z,52.97
2023-02-21T04:26:53.841Z,53.69
2023-02-21T04:29:25.832Z,53.12
2023-02-21T04:31:55.739Z,52.85
2023-02-21T04:34:24.660Z,52.68
2023-02-21T04:36:54.045Z,52.53
2023-02-21T04:39:22.679Z,52.32
2023-02-21T04:41:52.078Z,52.23
2023-02-21T04:44:20.773Z,52.47
2023-02-21T04:46:50.588Z,52.07
2023-02-21T04:49:19.092Z,53.37
2023-02-21T04:51:47.620Z,52.86
2023-02-21T04:54:16.155Z,53.16
2023-02-21T04:56:44.724Z,52.72
2023-02-21T04:59:13.580Z,52.80
2023-02-21T05:01:42.028Z,53.52
2023-02-21T05:04:12.076Z,52.53
2023-02-21T05:06:40.626Z,52.20
2023-02-21T05:09:09.117Z,52.17
2023-02-21T05:11:37.646Z,52.14
2023-02-21T05:14:06.059Z,53.08
2023-02-21T05:16:34.923Z,51.91
2023-02-21T05:19:03.565Z,51.92
2023-02-21T05:21:37.705Z,51.66
2023-02-21T05:24:06.820Z,51.71
2023-02-21T05:26:37.439Z,51.08
2023-02-21T05:29:06.695Z,51.77
2023-02-21T05:31:35.674Z,51.54
2023-02-21T05:34:04.325Z,50.94
2023-02-21T05:36:34.111Z,50.99
2023-02-21T05:39:02.688Z,51.90
2023-02-21T05:41:31.175Z,51.70
2023-02-21T05:43:59.889Z,52.15
2023-02-21T05:46:30.787Z,51.17
2023-02-21T05:49:00.337Z,51.35
2023-02-21T05:51:29.839Z,52.30
2023-02-21T05:53:59.656Z,52.41
2023-02-21T05:56:28.392Z,50.95
2023-02-21T05:58:56.873Z,51.50
2023-02-21T06:01:25.405Z,52.93
2023-02-21T06:03:53.810Z,51.41
2023-02-21T06:06:22.345Z,51.21
2023-02-21T06:08:52.150Z,51.24
2023-02-21T06:11:26.446Z,51.06
2023-02-21T06:13:57.537Z,51.44
2023-02-21T06:16:26.494Z,51.49
2023-02-21T06:19:00.846Z,51.94
2023-02-21T06:21:29.972Z,51.90
2023-02-21T06:23:58.936Z,51.78
2023-02-21T06:26:29.347Z,51.93
2023-02-21T06:28:57.843Z,52.93
2023-02-21T06:31:26.677Z,53.61
2023-02-21T06:33:55.222Z,52.83
2023-02-21T06:36:27.060Z,53.62
2023-02-21T06:38:57.898Z,52.51
2023-02-21T06:41:30.196Z,53.10
2023-02-21T06:44:00.511Z,54.36
2023-02-21T06:46:31.461Z,54.09
2023-02-21T06:49:00.317Z,53.68
2023-02-21T06:51:30.351Z,53.43
2023-02-21T06:54:00.362Z,53.39
2023-02-21T06:56:30.308Z,53.39
2023-02-21T06:58:59.067Z,54.65
2023-02-21T07:01:29.164Z,54.46
2023-02-21T07:04:07.713Z,53.22
2023-02-21T07:06:36.921Z,54.06
2023-02-21T07:09:05.405Z,53.67
2023-02-21T07:11:37.764Z,54.17
2023-02-21T07:14:06.466Z,55.00
2023-02-21T07:16:35.025Z,53.89
2023-02-21T07:19:03.590Z,53.34
2023-02-21T07:21:32.408Z,53.30
2023-02-21T07:24:00.908Z,54.53
2023-02-21T07:26:29.410Z,53.87
2023-02-21T07:29:00.833Z,52.47
2023-02-21T07:31:30.797Z,51.75
2023-02-21T07:33:59.354Z,53.15
2023-02-21T07:36:27.840Z,51.67
2023-02-21T07:38:56.332Z,50.35
2023-02-21T07:41:24.897Z,52.39
2023-02-21T07:43:53.303Z,52.19
2023-02-21T07:46:28.435Z,50.94
2023-02-21T07:48:57.098Z,51.89
2023-02-21T07:51:29.027Z,52.29
2023-02-21T07:53:57.798Z,50.49
2023-02-21T07:56:26.444Z,50.83
2023-02-21T07:58:55.087Z,52.21
2023-02-21T08:01:26.475Z,53.42
2023-02-21T08:03:55.368Z,51.82
2023-02-21T08:06:24.031Z,52.03
2023-02-21T08:08:52.503Z,52.41
2023-02-21T08:11:21.100Z,52.14
2023-02-21T08:13:49.661Z,52.92
2023-02-21T08:16:18.236Z,51.14
2023-02-21T08:18:51.039Z,51.49
2023-02-21T08:21:19.592Z,51.35
2023-02-21T08:23:48.085Z,49.60
2023-02-21T08:26:16.603Z,51.31
2023-02-21T08:28:44.965Z,51.13
2023-02-21T08:31:13.720Z,50.63
2023-02-21T08:33:42.322Z,51.31
2023-02-21T08:36:12.514Z,50.55
2023-02-21T08:38:41.217Z,52.18
2023-02-21T08:41:10.633Z,51.86
2023-02-21T08:43:39.117Z,51.29
2023-02-21T08:46:09.306Z,52.17
2023-02-21T08:48:38.042Z,51.72
2023-02-21T08:51:06.708Z,51.67
2023-02-21T08:53:36.562Z,52.20
2023-02-21T08:56:05.221Z,51.81
2023-02-21T08:58:33.857Z,51.59
2023-02-21T09:01:03.057Z,50.40
2023-02-21T09:03:31.493Z,50.82
2023-02-21T09:06:00.130Z,52.39
2023-02-21T09:08:30.947Z,52.47
2023-02-21T09:11:01.485Z,51.44
2023-02-21T09:13:30.539Z,51.25
2023-02-21T09:15:58.982Z,52.21
2023-02-21T09:18:27.949Z,50.00
2023-02-21T09:20:57.413Z,48.60
2023-02-21T09:23:28.427Z,49.19
2023-02-21T09:25:57.238Z,50.35
2023-02-21T09:28:27.097Z,51.59
2023-02-21T09:30:55.657Z,51.14
2023-02-21T09:33:25.330Z,49.33
2023-02-21T09:35:54.314Z,48.82
2023-02-21T09:38:22.736Z,47.96
2023-02-21T09:40:56.611Z,48.03
2023-02-21T09:43:32.518Z,47.94
2023-02-21T09:46:05.565Z,48.45
2023-02-21T09:48:34.485Z,49.46
2023-02-21T09:51:07.958Z,47.50
2023-02-21T09:53:40.345Z,46.84
2023-02-21T09:56:13.879Z,48.32
2023-02-21T09:58:45.471Z,48.98
2023-02-21T10:01:24.700Z,49.34
2023-02-21T10:04:02.120Z,48.23
2023-02-21T10:06:40.897Z,48.19
2023-02-21T10:09:17.703Z,47.49
2023-02-21T10:11:59.818Z,46.86
2023-02-21T10:14:41.664Z,46.53
2023-02-21T10:17:19.524Z,48.34
2023-02-21T10:19:54.456Z,48.70
2023-02-21T10:22:26.700Z,48.78
2023-02-21T10:24:55.635Z,50.79
2023-02-21T10:27:26.085Z,49.79
2023-02-21T10:30:01.340Z,49.27
2023-02-21T10:32:33.665Z,47.54
2023-02-21T10:35:02.352Z,47.68
2023-02-21T10:37:40.876Z,48.93
2023-02-21T10:40:29.628Z,51.05
2023-02-21T10:43:03.129Z,49.35
2023-02-21T10:45:37.779Z,47.94
2023-02-21T10:48:07.924Z,48.24
2023-02-21T10:50:42.528Z,49.61
2023-02-21T10:53:23.923Z,49.30
2023-02-21T10:56:27.106Z,49.33
2023-02-21T10:58:58.032Z,47.90
2023-02-21T11:01:37.172Z,48.83
2023-02-21T11:04:08.578Z,49.28
2023-02-21T11:06:39.553Z,48.84
2023-02-21T11:09:30.960Z,49.75
2023-02-21T11:12:07.654Z,49.63
2023-02-21T11:14:36.739Z,49.25
2023-02-21T11:17:24.763Z,50.51
2023-02-21T11:19:55.058Z,49.33
2023-02-21T11:22:25.726Z,50.27
2023-02-21T11:25:01.810Z,50.28
2023-02-21T11:27:34.228Z,50.06
2023-02-21T11:30:04.057Z,49.83
2023-02-21T11:32:38.898Z,48.62
2023-02-21T11:35:25.484Z,50.71
2023-02-21T11:37:57.155Z,51.13
2023-02-21T11:40:32.871Z,51.34
2023-02-21T11:43:21.614Z,50.81
2023-02-21T11:46:15.625Z,51.53
2023-02-21T11:48:57.200Z,50.75
2023-02-21T11:51:36.144Z,49.70
2023-02-21T11:54:06.773Z,50.31
2023-02-21T11:56:53.294Z,48.99
2023-02-21T11:59:39.229Z,50.23
2023-02-21T12:02:41.310Z,50.35
2023-02-21T12:05:26.764Z,49.57
2023-02-21T12:08:06.225Z,51.27
2023-02-21T12:10:48.220Z,50.09
2023-02-21T12:13:37.994Z,50.13
2023-02-21T12:16:22.237Z,50.05
2023-02-21T12:19:02.466Z,50.42
2023-02-21T12:21:47.172Z,49.97
2023-02-21T12:24:31.218Z,49.53
2023-02-21T12:27:04.322Z,48.61
2023-02-21T12:29:53.169Z,50.05
2023-02-21T12:32:51.669Z,49.73
2023-02-21T12:36:15.832Z,48.80
2023-02-21T12:38:57.197Z,47.96
2023-02-21T12:41:39.257Z,49.39
2023-02-21T12:44:14.743Z,49.56
2023-02-21T12:46:50.668Z,49.77
2023-02-21T12:49:24.197Z,49.82
2023-02-21T12:51:59.041Z,49.41
2023-02-21T12:54:38.815Z,48.41
2023-02-21T12:57:12.736Z,49.41
2023-02-21T12:59:52.415Z,49.48
2023-02-21T13:02:28.398Z,49.90
2023-02-21T13:05:01.854Z,49.72
2023-02-21T13:07:38.459Z,49.75
2023-02-21T13:10:16.610Z,51.03
2023-02-21T13:12:48.611Z,50.85
2023-02-21T13:15:22.165Z,49.84
2023-02-21T13:17:57.924Z,49.41
2023-02-21T13:20:29.406Z,50.39
2023-02-21T13:23:41.579Z,50.76
2023-02-21T13:26:26.120Z,50.44
2023-02-21T13:28:55.521Z,50.72
2023-02-21T13:31:26.483Z,50.81
2023-02-21T13:33:58.526Z,50.68
2023-02-21T13:36:30.313Z,51.43
2023-02-21T13:39:02.987Z,51.12
2023-02-21T13:41:37.995Z,51.33
2023-02-21T13:44:11.000Z,50.49
2023-02-21T13:47:13.897Z,51.88
2023-02-21T13:49:54.562Z,51.13
2023-02-21T13:52:51.585Z,49.92
2023-02-21T13:55:31.586Z,50.60
2023-02-21T13:58:36.566Z,51.13
2023-02-21T14:01:27.086Z,51.59
2023-02-21T14:03:58.800Z,51.54
2023-02-21T14:06:34.956Z,52.17
2023-02-21T14:09:13.714Z,51.71
2023-02-21T14:11:49.105Z,50.72
2023-02-21T14:14:29.118Z,52.75
2023-02-21T14:17:04.384Z,53.04
2023-02-21T14:19:39.671Z,52.80
2023-02-21T14:22:15.720Z,53.17
2023-02-21T14:24:48.427Z,52.16
2023-02-21T14:27:36.663Z,52.31
2023-02-21T14:30:29.013Z,52.83
2023-02-21T14:33:12.520Z,52.57
2023-02-21T14:35:50.595Z,52.66
2023-02-21T14:38:23.502Z,52.56
2023-02-21T14:41:03.223Z,51.70
2023-02-21T14:43:50.663Z,52.80
2023-02-21T14:46:51.033Z,52.21
2023-02-21T14:49:48.832Z,52.99
2023-02-21T14:52:50.039Z,52.50
2023-02-21T14:55:38.443Z,53.26
2023-02-21T14:58:53.545Z,52.97
2023-02-21T15:01:41.077Z,53.08
2023-02-21T15:04:16.616Z,53.17
2023-02-21T15:06:56.986Z,53.83
2023-02-21T15:09:25.607Z,54.17
2023-02-21T15:12:03.000Z,53.93
2023-02-21T15:14:37.742Z,54.37
2023-02-21T15:17:14.488Z,54.25
2023-02-21T15:19:44.720Z,53.85
2023-02-21T15:22:24.642Z,54.26
2023-02-21T15:25:16.346Z,54.72
2023-02-21T15:27:56.950Z,54.71
2023-02-21T15:30:27.777Z,54.83
2023-02-21T15:33:01.054Z,55.22
2023-02-21T15:35:35.120Z,55.29
2023-02-21T15:38:09.457Z,55.31
2023-02-21T15:40:39.313Z,55.52
2023-02-21T15:43:09.073Z,54.94
2023-02-21T15:45:45.218Z,55.16
2023-02-21T15:48:14.044Z,55.30
2023-02-21T15:50:46.782Z,54.89
2023-02-21T15:53:20.344Z,55.24
2023-02-21T15:55:50.169Z,55.27
2023-02-21T15:58:23.892Z,56.55
2023-02-21T16:01:20.999Z,56.23
2023-02-21T16:03:50.172Z,56.08
2023-02-21T16:06:23.574Z,55.80
2023-02-21T16:09:02.078Z,55.47
2023-02-21T16:11:51.493Z,56.28
2023-02-21T16:14:24.763Z,56.07
2023-02-21T16:17:07.408Z,55.95
2023-02-21T16:19:36.578Z,55.97
2023-02-21T16:22:24.858Z,56.19
2023-02-21T16:25:16.276Z,55.64
2023-02-21T16:27:47.005Z,56.39
2023-02-21T16:30:18.045Z,55.87
2023-02-21T16:32:48.598Z,55.96
2023-02-21T16:35:20.835Z,56.19
2023-02-21T16:37:51.218Z,55.96
2023-02-21T16:40:25.153Z,56.09
2023-02-21T16:42:54.857Z,56.16
2023-02-21T16:45:24.990Z,56.12
2023-02-21T16:47:58.075Z,56.94
2023-02-21T16:50:31.455Z,56.76
2023-02-21T16:53:00.624Z,56.79
2023-02-21T16:55:31.055Z,57.10
2023-02-21T16:58:03.501Z,56.35
2023-02-21T17:00:33.762Z,56.85
2023-02-21T17:03:02.695Z,56.67
2023-02-21T17:05:31.244Z,57.09
2023-02-21T17:08:00.006Z,57.37
2023-02-21T17:10:28.616Z,56.88
2023-02-21T17:12:58.487Z,57.16
2023-02-21T17:15:28.053Z,57.49
2023-02-21T17:17:56.872Z,56.78
2023-02-21T17:20:26.079Z,56.88
2023-02-21T17:22:55.899Z,57.47
2023-02-21T17:25:24.378Z,57.47
2023-02-21T17:27:53.470Z,56.88
2023-02-21T17:30:28.986Z,56.22
2023-02-21T17:32:57.778Z,56.82
2023-02-21T17:35:28.002Z,57.08
2023-02-21T17:37:56.626Z,56.85
2023-02-21T17:40:25.188Z,56.74
2023-02-21T17:42:53.731Z,56.56
2023-02-21T17:45:23.993Z,57.03
2023-02-21T17:47:54.440Z,56.82
2023-02-21T17:50:23.143Z,57.17
2023-02-21T17:52:51.737Z,57.29
2023-02-21T17:55:22.438Z,57.49
2023-02-21T17:57:51.100Z,57.27
2023-02-21T18:00:24.589Z,57.66
2023-02-21T18:02:56.236Z,57.67
2023-02-21T18:05:25.159Z,57.53
2023-02-21T18:07:55.384Z,57.87
2023-02-21T18:10:26.171Z,58.20
2023-02-21T18:12:55.185Z,57.36
2023-02-21T18:15:29.242Z,57.63
2023-02-21T18:18:06.989Z,57.93
2023-02-21T18:20:36.771Z,57.87
2023-02-21T18:23:06.624Z,57.55
2023-02-21T18:25:36.049Z,57.45
2023-02-21T18:28:06.112Z,57.58
2023-02-21T18:30:35.079Z,56.85
2023-02-21T18:33:05.387Z,56.90
2023-02-21T18:35:34.059Z,57.20
2023-02-21T18:38:02.680Z,56.87
2023-02-21T18:40:45.390Z,56.98
2023-02-21T18:43:19.424Z,56.17
2023-02-21T18:45:49.293Z,57.30
2023-02-21T18:48:20.566Z,56.85
2023-02-21T18:50:49.885Z,57.55
2023-02-21T18:53:19.363Z,56.66
2023-02-21T18:55:48.178Z,56.97
2023-02-21T18:58:16.863Z,56.92
2023-02-21T19:00:47.699Z,57.26
2023-02-21T19:03:18.105Z,56.97
2023-02-21T19:05:49.579Z,56.60
2023-02-21T19:08:31.462Z,56.53
2023-02-21T19:11:00.666Z,56.98
2023-02-21T19:13:32.500Z,57.30
2023-02-21T19:16:01.285Z,57.46
2023-02-21T19:18:31.126Z,56.53
2023-02-21T19:21:01.311Z,57.06
2023-02-21T19:23:37.596Z,57.24
2023-02-21T19:26:06.624Z,57.30
2023-02-21T19:28:35.164Z,56.99
2023-02-21T19:31:04.502Z,57.49
2023-02-21T19:33:35.889Z,57.58
2023-02-21T19:36:06.949Z,56.88
2023-02-21T19:38:35.970Z,57.56
2023-02-21T19:41:06.659Z,57.52
2023-02-21T19:43:36.156Z,57.21
2023-02-21T19:46:05.440Z,57.13
2023-02-21T19:48:34.299Z,56.51
2023-02-21T19:51:02.848Z,56.83
2023-02-21T19:53:45.092Z,57.33
2023-02-21T19:56:13.788Z,57.61
2023-02-21T19:58:44.363Z,56.87
2023-02-21T20:01:14.412Z,57.01
2023-02-21T20:03:44.430Z,57.22
2023-02-21T20:06:13.111Z,57.58
2023-02-21T20:08:48.692Z,57.73
2023-02-21T20:11:18.067Z,57.80
2023-02-21T20:13:46.654Z,57.31
2023-02-21T20:16:17.114Z,57.60
2023-02-21T20:18:45.828Z,57.34
2023-02-21T20:21:19.939Z,57.54
2023-02-21T20:23:50.554Z,58.17
2023-02-21T20:26:23.719Z,58.02
2023-02-21T20:28:53.286Z,58.00
2023-02-21T20:31:28.433Z,58.43
2023-02-21T20:33:57.383Z,57.59
2023-02-21T20:36:29.353Z,58.68
2023-02-21T20:38:59.339Z,58.16
2023-02-21T20:41:31.383Z,58.17
2023-02-21T20:44:02.084Z,58.41
2023-02-21T20:46:35.008Z,57.89
2023-02-21T20:49:07.149Z,58.66
2023-02-21T20:51:38.213Z,58.16
2023-02-21T20:54:11.152Z,57.96
2023-02-21T20:56:45.434Z,57.93
2023-02-21T20:59:19.080Z,57.44
2023-02-21T21:01:49.319Z,57.68
2023-02-21T21:04:19.731Z,57.92
2023-02-21T21:06:49.529Z,58.44
2023-02-21T21:09:29.007Z,58.70
2023-02-21T21:12:00.858Z,57.87
2023-02-21T21:14:31.158Z,58.01
2023-02-21T21:17:02.824Z,58.01
2023-02-21T21:19:34.418Z,58.44
2023-02-21T21:22:03.630Z,58.24
2023-02-21T21:24:33.953Z,58.86
2023-02-21T21:27:08.735Z,58.63
2023-02-21T21:29:38.579Z,58.63
2023-02-21T21:32:09.512Z,58.91
2023-02-21T21:34:42.205Z,58.86
2023-02-21T21:37:11.066Z,59.33
2023-02-21T21:39:44.939Z,59.37
2023-02-21T21:42:17.286Z,59.52
2023-02-21T21:44:48.104Z,59.00
2023-02-21T21:47:16.748Z,58.90
2023-02-21T21:49:46.175Z,59.02
2023-02-21T21:52:14.613Z,59.71
2023-02-21T21:54:45.915Z,59.78
2023-02-21T21:57:16.421Z,60.13
2023-02-21T21:59:45.634Z,59.54
2023-02-21T22:02:14.204Z,59.48
2023-02-21T22:04:42.838Z,59.31
2023-02-21T22:07:12.047Z,59.71
2023-02-21T22:09:41.176Z,59.02
2023-02-21T22:12:12.352Z,59.56
2023-02-21T22:14:40.816Z,59.73
2023-02-21T22:17:11.760Z,60.14
2023-02-21T22:19:40.317Z,59.64
2023-02-21T22:22:08.872Z,59.25
2023-02-21T22:24:40.738Z,59.29
2023-02-21T22:27:10.623Z,59.88
2023-02-21T22:29:39.125Z,59.07
2023-02-21T22:32:08.349Z,59.32
2023-02-21T22:34:39.229Z,59.42
2023-02-21T22:37:10.345Z,59.47
2023-02-21T22:39:41.917Z,59.32
2023-02-21T22:42:12.794Z,59.75
2023-02-21T22:44:41.303Z,60.73
2023-02-21T22:47:12.333Z,60.23
2023-02-21T22:49:40.859Z,60.77
2023-02-21T22:52:09.789Z,59.84
2023-02-21T22:54:38.214Z,61.10
2023-02-21T22:57:07.501Z,60.05
2023-02-21T22:59:37.718Z,60.31
2023-02-21T23:02:06.115Z,59.82
2023-02-21T23:04:37.902Z,59.23
2023-02-21T23:07:06.728Z,59.54
2023-02-21T23:09:37.262Z,60.65
2023-02-21T23:12:07.413Z,60.42
2023-02-21T23:14:39.565Z,59.35
2023-02-21T23:17:08.123Z,60.78
2023-02-21T23:19:36.501Z,60.81
2023-02-21T23:22:05.842Z,60.49
2023-02-21T23:24:34.350Z,60.37
2023-02-21T23:27:03.090Z,59.86
2023-02-21T23:29:31.608Z,60.44
2023-02-21T23:32:09.882Z,60.55
2023-02-21T23:34:41.682Z,60.65
2023-02-21T23:37:12.629Z,60.66
2023-02-21T23:39:42.163Z,60.51
2023-02-21T23:42:11.331Z,60.47
2023-02-21T23:44:41.366Z,60.73
2023-02-21T23:47:11.324Z,61.16
2023-02-21T23:49:44.311Z,60.52
2023-02-21T23:52:12.967Z,60.34
2023-02-21T23:54:41.946Z,60.46
2023-02-21T23:57:10.301Z,60.89
2023-02-21T23:59:38.729Z,60.59
